Time;durP1;ratioP1;P1;durP2;ratioP2;P2;SDS_P1;SDS_P2;PMS_P1;PMS_P2;Temp;Humidity;BMP_temperature;BMP_pressure;BME280_temperature;BME280_humidity;BME280_pressure;Samples;Min_cycle;Max_cycle;Signal;HPM_P1;HPM_P2
2021/04/15 00:01:13;;;;;;;39.03;22.60;;;3.50;99.90;;;;;;4305648;33;20267;-72
2021/04/15 00:03:40;;;;;;;32.93;20.83;;;3.40;99.90;;;;;;4306373;33;20165;-72
2021/04/15 00:06:11;;;;;;;30.83;19.20;;;3.50;99.90;;;;;;4305921;33;20204;-72
2021/04/15 00:08:37;;;;;;;32.90;20.00;;;3.50;99.90;;;;;;4304985;33;20189;-72
2021/04/15 00:11:04;;;;;;;36.70;20.93;;;3.40;99.90;;;;;;4305030;33;20162;-72
2021/04/15 00:13:41;;;;;;;31.50;19.90;;;3.40;99.90;;;;;;4306551;33;20201;-72
2021/04/15 00:16:09;;;;;;;29.00;18.37;;;3.40;99.90;;;;;;4305071;33;20508;-72
2021/04/15 00:18:36;;;;;;;28.10;18.97;;;3.30;99.90;;;;;;4305233;33;20151;-72
2021/04/15 00:21:04;;;;;;;27.43;16.83;;;3.40;99.90;;;;;;4305126;33;20145;-72
2021/04/15 00:23:31;;;;;;;26.97;17.77;;;3.40;99.90;;;;;;4305033;33;20504;-72
2021/04/15 00:25:59;;;;;;;28.47;18.90;;;3.40;99.90;;;;;;4305451;33;20153;-71
2021/04/15 00:28:26;;;;;;;28.83;19.07;;;3.30;99.90;;;;;;4307548;33;20197;-71
2021/04/15 00:30:53;;;;;;;31.13;19.70;;;3.40;99.90;;;;;;4308423;33;20164;-71
2021/04/15 00:33:20;;;;;;;31.37;19.73;;;3.40;99.90;;;;;;4308365;33;20460;-72
2021/04/15 00:35:47;;;;;;;29.57;20.00;;;3.40;99.90;;;;;;4307640;33;20188;-72
2021/04/15 00:38:16;;;;;;;35.07;22.53;;;3.40;99.90;;;;;;4307069;33;20149;-72
2021/04/15 00:40:45;;;;;;;33.77;22.20;;;3.50;99.90;;;;;;4307536;33;20141;-71
2021/04/15 00:43:13;;;;;;;34.70;22.53;;;3.50;99.90;;;;;;4307742;33;20157;-72
2021/04/15 00:45:43;;;;;;;32.50;21.60;;;3.50;99.90;;;;;;4307505;33;20176;-72
2021/04/15 00:48:30;;;;;;;31.33;20.73;;;3.40;99.90;;;;;;4308219;33;20147;-72
2021/04/15 00:50:58;;;;;;;36.53;22.90;;;3.40;99.90;;;;;;4308942;33;20224;-72
2021/04/15 00:53:33;;;;;;;36.27;23.83;;;3.40;99.90;;;;;;4307886;33;20145;-72
2021/04/15 00:56:00;;;;;;;35.33;22.20;;;3.40;99.90;;;;;;4308854;33;20146;-72
2021/04/15 00:58:27;;;;;;;36.50;23.33;;;3.40;99.90;;;;;;4308806;33;20164;-72
2021/04/15 01:00:53;;;;;;;38.93;24.43;;;3.40;99.90;;;;;;4308745;33;20153;-72
2021/04/15 01:03:21;;;;;;;37.83;23.53;;;3.40;99.90;;;;;;4306900;33;20152;-72
2021/04/15 01:05:49;;;;;;;34.57;23.27;;;3.40;99.90;;;;;;4308821;33;20205;-72
2021/04/15 01:08:16;;;;;;;37.87;24.23;;;3.30;99.90;;;;;;4307362;33;20544;-72
2021/04/15 01:11:05;;;;;;;38.23;24.07;;;3.40;99.90;;;;;;4307042;33;20213;-72
2021/04/15 01:13:54;;;;;;;36.30;23.60;;;3.40;99.90;;;;;;4308827;33;20173;-72
2021/04/15 01:16:32;;;;;;;34.37;22.00;;;3.50;99.90;;;;;;4307737;33;20146;-72
2021/04/15 01:19:01;;;;;;;35.77;23.03;;;3.40;99.90;;;;;;4307208;33;20425;-72
2021/04/15 01:21:43;;;;;;;33.97;22.20;;;3.40;99.90;;;;;;4308459;33;20147;-72
2021/04/15 01:24:11;;;;;;;31.53;21.30;;;3.40;99.90;;;;;;4306837;33;20200;-72
2021/04/15 01:26:40;;;;;;;35.37;21.53;;;3.40;99.90;;;;;;4308417;33;20206;-71
2021/04/15 01:29:28;;;;;;;35.27;21.03;;;3.40;99.90;;;;;;4307665;33;20203;-72
2021/04/15 01:31:59;;;;;;;36.53;21.77;;;3.40;99.90;;;;;;4308471;33;20204;-71
2021/04/15 01:34:48;;;;;;;36.07;21.97;;;3.40;99.90;;;;;;4307288;33;20145;-71
2021/04/15 01:37:31;;;;;;;34.93;22.23;;;3.40;99.90;;;;;;4307014;33;20465;-71
2021/04/15 01:40:22;;;;;;;32.97;22.10;;;3.50;99.90;;;;;;4307545;33;20190;-71
2021/04/15 01:43:10;;;;;;;34.70;22.53;;;3.40;99.90;;;;;;4306693;33;20204;-71
2021/04/15 01:45:37;;;;;;;36.30;22.20;;;3.40;99.90;;;;;;4307573;33;20141;-71
2021/04/15 01:48:10;;;;;;;38.13;21.87;;;3.30;99.90;;;;;;4307256;33;20209;-71
2021/04/15 01:50:45;;;;;;;37.43;22.77;;;3.40;99.90;;;;;;4307389;33;20193;-72
2021/04/15 01:53:17;;;;;;;32.37;21.00;;;3.40;99.90;;;;;;4307510;33;20189;-72
2021/04/15 01:55:55;;;;;;;33.23;20.67;;;3.30;99.90;;;;;;4308049;33;20153;-72
2021/04/15 01:58:30;;;;;;;28.77;18.13;;;3.40;99.90;;;;;;4307889;33;20499;-71
2021/04/15 02:01:06;;;;;;;27.07;17.57;;;3.40;99.90;;;;;;4307602;33;20213;-72
2021/04/15 02:03:35;;;;;;;25.40;16.80;;;3.40;99.90;;;;;;4307762;33;20173;-72
2021/04/15 02:06:16;;;;;;;25.17;17.10;;;3.30;99.90;;;;;;4307673;33;20200;-72
2021/04/15 02:08:46;;;;;;;24.63;14.90;;;3.30;99.90;;;;;;4307949;33;20376;-72
2021/04/15 02:11:29;;;;;;;22.87;15.53;;;3.20;99.90;;;;;;4305967;33;20184;-71
2021/04/15 02:13:59;;;;;;;25.53;16.23;;;3.20;99.90;;;;;;4306408;33;20189;-72
2021/04/15 02:16:29;;;;;;;26.77;16.43;;;3.20;99.90;;;;;;4307581;33;20153;-71
2021/04/15 02:19:27;;;;;;;26.00;16.73;;;3.30;99.90;;;;;;4306393;33;20207;-72
2021/04/15 02:22:03;;;;;;;25.17;15.67;;;3.30;99.90;;;;;;4300292;33;20196;-72
2021/04/15 02:24:36;;;;;;;25.07;17.03;;;3.30;99.90;;;;;;4306776;33;20193;-72
2021/04/15 02:27:35;;;;;;;26.07;16.87;;;3.20;99.90;;;;;;4306315;33;20204;-72
2021/04/15 02:30:20;;;;;;;29.37;18.03;;;3.30;99.90;;;;;;4247162;33;20158;-72
2021/04/15 02:33:16;;;;;;;27.60;17.23;;;3.40;99.90;;;;;;4248001;33;20220;-72
2021/04/15 02:35:46;;;;;;;26.60;17.50;;;3.40;99.90;;;;;;4248007;33;20188;-72
2021/04/15 02:38:16;;;;;;;25.10;16.47;;;3.30;99.90;;;;;;4248478;33;20162;-71
2021/04/15 02:40:49;;;;;;;25.13;16.40;;;3.40;99.90;;;;;;4246639;33;20155;-72
2021/04/15 02:43:44;;;;;;;25.30;15.87;;;3.30;99.90;;;;;;4247548;33;20163;-72
2021/04/15 02:46:19;;;;;;;25.90;16.80;;;3.30;99.90;;;;;;4245635;33;20453;-72
2021/04/15 02:48:48;;;;;;;24.33;16.43;;;3.30;99.90;;;;;;4247075;33;20478;-72
2021/04/15 02:51:23;;;;;;;24.07;15.67;;;3.30;99.90;;;;;;4246325;33;20185;-72
2021/04/15 02:53:59;;;;;;;22.87;15.73;;;3.30;99.90;;;;;;4247930;33;20162;-72
2021/04/15 02:56:31;;;;;;;22.80;14.97;;;3.20;99.90;;;;;;4247963;33;20218;-72
2021/04/15 02:59:08;;;;;;;20.57;14.30;;;3.20;99.90;;;;;;4247836;33;20198;-72
2021/04/15 03:01:39;;;;;;;20.33;14.00;;;3.20;99.90;;;;;;4246437;33;20516;-72
2021/04/15 03:04:14;;;;;;;19.87;13.60;;;3.20;99.90;;;;;;4247791;33;20186;-72
2021/04/15 03:06:43;;;;;;;19.07;13.57;;;3.20;99.90;;;;;;4281654;33;20165;-72
2021/04/15 03:09:11;;;;;;;17.37;12.70;;;3.20;99.90;;;;;;4305710;33;20145;-72
2021/04/15 03:11:51;;;;;;;18.10;12.77;;;3.20;99.90;;;;;;4306931;33;20215;-72
2021/04/15 03:14:28;;;;;;;19.30;13.47;;;3.10;99.90;;;;;;4305675;33;20177;-72
2021/04/15 03:17:00;;;;;;;22.40;15.27;;;3.10;99.90;;;;;;4306288;33;20150;-72
2021/04/15 03:19:33;;;;;;;23.43;16.20;;;3.10;99.90;;;;;;4306802;33;20149;-72
2021/04/15 03:22:08;;;;;;;24.97;16.57;;;3.10;99.90;;;;;;4305402;33;20146;-72
2021/04/15 03:24:42;;;;;;;21.87;15.47;;;3.20;99.90;;;;;;4306793;33;20220;-72
2021/04/15 03:27:14;;;;;;;20.70;14.30;;;3.20;99.90;;;;;;4306832;33;20186;-72
2021/04/15 03:29:54;;;;;;;22.93;14.97;;;3.20;99.90;;;;;;4304902;33;20209;-72
2021/04/15 03:32:38;;;;;;;24.03;15.93;;;3.20;99.90;;;;;;4306573;33;20193;-72
2021/04/15 03:35:16;;;;;;;27.53;17.23;;;3.20;99.90;;;;;;4305843;33;20153;-72
2021/04/15 03:37:48;;;;;;;25.17;17.07;;;3.20;99.90;;;;;;4305320;33;20158;-72
2021/04/15 03:40:19;;;;;;;29.30;17.40;;;3.10;99.90;;;;;;4306143;33;20172;-72
2021/04/15 03:42:58;;;;;;;26.40;17.57;;;3.10;99.90;;;;;;4304781;33;20157;-72
2021/04/15 03:45:30;;;;;;;28.10;17.57;;;3.10;99.90;;;;;;4306087;33;20166;-72
2021/04/15 03:48:07;;;;;;;25.13;16.80;;;3.00;99.90;;;;;;4306048;33;20197;-72
2021/04/15 03:50:54;;;;;;;26.80;17.67;;;2.90;99.90;;;;;;4306547;33;20149;-72
2021/04/15 03:53:29;;;;;;;27.13;17.13;;;2.90;99.90;;;;;;4305092;33;20149;-72
2021/04/15 03:56:01;;;;;;;27.40;17.40;;;2.90;99.90;;;;;;4305451;33;20147;-72
2021/04/15 03:58:35;;;;;;;28.20;17.57;;;3.00;99.90;;;;;;4306166;33;20181;-71
2021/04/15 04:01:08;;;;;;;24.20;16.50;;;3.00;99.90;;;;;;4306210;33;20144;-72
2021/04/15 04:03:39;;;;;;;28.20;18.00;;;3.00;99.90;;;;;;4306387;33;20150;-71
2021/04/15 04:06:27;;;;;;;29.43;18.63;;;3.00;99.90;;;;;;4309348;33;20154;-71
2021/04/15 04:09:01;;;;;;;28.00;18.07;;;3.10;99.90;;;;;;4308770;33;20202;-71
2021/04/15 04:11:33;;;;;;;29.30;18.10;;;3.10;99.90;;;;;;4308167;33;20461;-71
2021/04/15 04:14:04;;;;;;;28.77;18.27;;;3.10;99.90;;;;;;4309336;33;20176;-71
2021/04/15 04:16:42;;;;;;;26.77;17.20;;;3.00;99.90;;;;;;4309234;33;20154;-71
2021/04/15 04:19:22;;;;;;;25.13;16.80;;;3.00;99.90;;;;;;4308192;33;20233;-71
2021/04/15 04:22:03;;;;;;;22.80;15.93;;;3.10;99.90;;;;;;4307744;33;20173;-71
2021/04/15 04:24:51;;;;;;;23.80;15.80;;;3.10;99.90;;;;;;4309244;33;20179;-71
2021/04/15 04:27:42;;;;;;;21.87;15.20;;;3.00;99.90;;;;;;4308500;33;20185;-71
2021/04/15 04:30:19;;;;;;;21.57;14.80;;;3.10;99.90;;;;;;4307679;33;20159;-71
2021/04/15 04:32:47;;;;;;;21.60;14.63;;;3.10;99.90;;;;;;4307558;33;20156;-71
2021/04/15 04:35:28;;;;;;;21.07;14.40;;;3.10;99.90;;;;;;4307439;33;20192;-71
2021/04/15 04:37:57;;;;;;;20.97;14.47;;;3.10;99.90;;;;;;4308843;33;20462;-71
2021/04/15 04:40:29;;;;;;;22.87;14.43;;;3.00;99.90;;;;;;4308235;33;20161;-71
2021/04/15 04:43:04;;;;;;;22.60;14.90;;;2.90;99.90;;;;;;4306879;33;20196;-71
2021/04/15 04:45:33;;;;;;;22.97;15.80;;;3.00;99.90;;;;;;4307773;33;20145;-71
2021/04/15 04:48:11;;;;;;;18.00;12.90;;;3.00;99.90;;;;;;4307195;33;20157;-72
2021/04/15 04:50:44;;;;;;;17.33;10.83;;;3.00;99.90;;;;;;4308298;33;20252;-71
2021/04/15 04:53:24;;;;;;;14.60;11.27;;;2.90;99.90;;;;;;4307443;33;20464;-71
2021/04/15 04:55:56;;;;;;;15.93;11.37;;;3.00;99.90;;;;;;4308803;33;20141;-72
2021/04/15 04:58:23;;;;;;;14.53;11.20;;;3.10;99.90;;;;;;4307191;33;20154;-71
2021/04/15 05:00:55;;;;;;;18.20;12.90;;;3.10;99.90;;;;;;4307046;33;20214;-71
2021/04/15 05:03:27;;;;;;;18.93;13.40;;;3.00;99.90;;;;;;4308384;33;20220;-71
2021/04/15 05:06:06;;;;;;;23.27;15.70;;;3.00;99.90;;;;;;4307981;33;20221;-71
2021/04/15 05:08:58;;;;;;;21.63;14.77;;;3.00;99.90;;;;;;4308116;33;20164;-72
2021/04/15 05:11:31;;;;;;;19.93;13.77;;;3.00;99.90;;;;;;4306911;33;20176;-72
2021/04/15 05:14:00;;;;;;;20.20;13.93;;;3.00;99.90;;;;;;4307518;33;20228;-72
2021/04/15 05:16:34;;;;;;;20.73;13.70;;;3.00;99.90;;;;;;4306218;33;20153;-72
2021/04/15 05:19:00;;;;;;;15.50;10.97;;;3.10;99.90;;;;;;4307474;33;20395;-72
2021/04/15 05:21:31;;;;;;;15.07;10.70;;;3.10;99.90;;;;;;4306747;33;20184;-72
2021/04/15 05:24:25;;;;;;;13.87;9.97;;;3.00;99.90;;;;;;4306649;33;20438;-73
2021/04/15 05:26:53;;;;;;;13.53;8.70;;;3.10;99.90;;;;;;4262140;33;20564;-72
2021/04/15 05:29:27;;;;;;;14.10;9.77;;;3.20;99.90;;;;;;4263639;33;20231;-72
2021/04/15 05:31:55;;;;;;;13.37;9.43;;;3.10;99.90;;;;;;4261920;33;20464;-72
2021/04/15 05:34:36;;;;;;;12.40;9.33;;;3.00;99.90;;;;;;4261508;33;20154;-72
2021/04/15 05:37:14;;;;;;;14.77;10.17;;;3.00;99.90;;;;;;4261566;33;20155;-72
2021/04/15 05:39:41;;;;;;;15.73;11.10;;;3.10;99.90;;;;;;4261846;33;20155;-72
2021/04/15 05:42:36;;;;;;;19.33;12.57;;;3.20;99.90;;;;;;4260995;33;20701;-72
2021/04/15 05:45:19;;;;;;;16.50;11.53;;;3.20;99.90;;;;;;4262119;33;20253;-72
2021/04/15 05:48:07;;;;;;;19.07;12.80;;;3.20;99.90;;;;;;4261542;33;20237;-72
2021/04/15 05:50:41;;;;;;;18.07;11.83;;;3.20;99.90;;;;;;4262260;33;20170;-71
2021/04/15 05:53:12;;;;;;;17.13;11.80;;;3.20;99.90;;;;;;4263086;33;20281;-72
2021/04/15 05:55:46;;;;;;;20.17;13.13;;;3.30;99.90;;;;;;4262024;33;20155;-72
2021/04/15 05:58:40;;;;;;;22.20;14.47;;;3.50;99.90;;;;;;4263457;33;20182;-71
2021/04/15 06:01:17;;;;;;;23.23;14.40;;;3.60;99.90;;;;;;4261160;33;20151;-72
2021/04/15 06:03:57;;;;;;;20.80;13.40;;;3.60;99.90;;;;;;4284457;33;20165;-71
2021/04/15 06:06:31;;;;;;;23.57;14.60;;;3.60;99.90;;;;;;4307544;33;20150;-71
2021/04/15 06:08:59;;;;;;;24.77;15.73;;;3.50;99.90;;;;;;4307581;33;20227;-72
2021/04/15 06:11:46;;;;;;;23.37;14.80;;;3.60;99.90;;;;;;4307622;33;20424;-72
2021/04/15 06:14:51;;;;;;;22.77;14.70;;;3.70;99.90;;;;;;4306062;33;20154;-71
2021/04/15 06:17:37;;;;;;;25.60;15.53;;;3.80;99.90;;;;;;4307228;33;20176;-72
2021/04/15 06:20:10;;;;;;;25.97;16.03;;;3.90;99.90;;;;;;4307113;33;20184;-71
2021/04/15 06:22:41;;;;;;;26.23;15.63;;;3.90;99.90;;;;;;4307054;33;20482;-72
2021/04/15 06:25:17;;;;;;;23.53;14.97;;;4.10;99.90;;;;;;4306020;33;20180;-71
2021/04/15 06:27:45;;;;;;;20.87;13.73;;;4.10;99.90;;;;;;4307796;33;20156;-71
2021/04/15 06:30:36;;;;;;;18.87;12.50;;;4.10;99.90;;;;;;4306926;33;20532;-71
2021/04/15 06:33:10;;;;;;;20.70;13.47;;;4.10;99.90;;;;;;4306913;33;20165;-72
2021/04/15 06:35:37;;;;;;;19.73;12.43;;;4.10;99.90;;;;;;4307583;33;20199;-73
2021/04/15 06:38:24;;;;;;;17.77;12.10;;;4.20;99.90;;;;;;4307426;33;20169;-72
2021/04/15 06:41:20;;;;;;;17.30;10.17;;;4.10;99.90;;;;;;4306808;33;20456;-72
2021/04/15 06:43:58;;;;;;;16.43;10.80;;;4.10;99.90;;;;;;4307222;33;20198;-72
2021/04/15 06:46:41;;;;;;;15.80;10.40;;;4.20;99.90;;;;;;4307065;33;20473;-72
2021/04/15 06:49:14;;;;;;;13.90;9.53;;;4.20;99.90;;;;;;4307374;33;20170;-72
2021/04/15 06:52:14;;;;;;;16.40;10.83;;;4.20;99.90;;;;;;4306325;33;20146;-72
2021/04/15 06:55:02;;;;;;;17.83;11.70;;;4.20;99.90;;;;;;4305637;33;20502;-72
2021/04/15 06:57:56;;;;;;;14.77;9.30;;;4.40;99.90;;;;;;4306959;33;20176;-72
2021/04/15 07:00:48;;;;;;;13.33;9.00;;;4.30;99.90;;;;;;4305241;33;20408;-72
2021/04/15 07:03:38;;;;;;;12.87;9.00;;;4.40;99.90;;;;;;4306850;33;20204;-72
2021/04/15 07:06:12;;;;;;;10.37;7.33;;;4.30;99.90;;;;;;4306584;33;20177;-71
2021/04/15 07:09:17;;;;;;;10.50;7.00;;;4.40;99.90;;;;;;4306143;33;20184;-71
2021/04/15 07:12:16;;;;;;;13.50;8.53;;;4.40;99.90;;;;;;4306337;33;20205;-71
2021/04/15 07:15:01;;;;;;;13.00;8.83;;;4.40;99.90;;;;;;4306817;33;20526;-71
2021/04/15 07:17:55;;;;;;;13.10;9.10;;;4.40;99.90;;;;;;4305957;33;20527;-71
2021/04/15 07:20:38;;;;;;;13.07;8.83;;;4.60;99.90;;;;;;4304988;33;20197;-72
2021/04/15 07:23:45;;;;;;;13.83;9.33;;;4.50;99.90;;;;;;4307030;33;20380;-72
2021/04/15 07:26:54;;;;;;;13.87;9.77;;;4.60;99.90;;;;;;4305641;33;20497;-71
2021/04/15 07:29:39;;;;;;;14.73;9.80;;;4.70;99.90;;;;;;4306539;33;20141;-71
2021/04/15 07:32:30;;;;;;;14.77;9.20;;;4.70;99.90;;;;;;4305460;33;20184;-72
2021/04/15 07:35:12;;;;;;;13.70;8.27;;;4.60;99.90;;;;;;4306454;33;20189;-71
2021/04/15 07:38:06;;;;;;;11.83;8.30;;;4.80;99.90;;;;;;4305564;33;20435;-72
2021/04/15 07:40:57;;;;;;;11.33;7.83;;;4.90;99.90;;;;;;4306694;33;20147;-72
2021/04/15 07:43:23;;;;;;;11.37;7.33;;;4.90;99.90;;;;;;4304465;33;20182;-72
2021/04/15 07:46:29;;;;;;;10.83;7.40;;;5.10;99.90;;;;;;4305082;33;20149;-72
2021/04/15 07:49:24;;;;;;;9.07;6.37;;;5.10;99.90;;;;;;4305535;33;20175;-72
2021/04/15 07:52:18;;;;;;;6.80;5.73;;;5.20;99.90;;;;;;4306524;33;20422;-68
2021/04/15 07:55:03;;;;;;;6.93;5.10;;;5.30;99.90;;;;;;4306479;33;20194;-68
2021/04/15 07:57:34;;;;;;;6.93;4.50;;;5.30;99.90;;;;;;4305985;33;20165;-68
2021/04/15 08:00:19;;;;;;;5.73;4.20;;;5.20;99.90;;;;;;4305371;33;20170;-67
2021/04/15 08:03:23;;;;;;;5.23;3.93;;;5.20;99.90;;;;;;4305513;33;20152;-68
2021/04/15 08:06:03;;;;;;;4.97;4.20;;;5.30;99.90;;;;;;4305770;33;20149;-68
2021/04/15 08:08:52;;;;;;;5.27;4.10;;;5.30;99.90;;;;;;4305465;33;20150;-68
2021/04/15 08:11:49;;;;;;;4.97;3.87;;;5.30;99.90;;;;;;4305407;33;20217;-68
2021/04/15 08:14:19;;;;;;;4.70;3.73;;;5.40;99.90;;;;;;4305307;33;20202;-68
2021/04/15 08:17:09;;;;;;;4.50;3.63;;;5.40;99.90;;;;;;4305592;33;20198;-68
2021/04/15 08:20:06;;;;;;;5.80;3.67;;;5.30;99.90;;;;;;4306396;33;20256;-68
2021/04/15 08:22:45;;;;;;;4.00;3.50;;;5.40;99.90;;;;;;4304903;33;20194;-67
2021/04/15 08:25:20;;;;;;;4.90;3.73;;;5.50;99.90;;;;;;4305475;33;20159;-68
2021/04/15 08:28:04;;;;;;;6.03;3.70;;;5.50;99.90;;;;;;4305216;33;20147;-68
2021/04/15 08:30:35;;;;;;;4.10;3.70;;;5.50;99.90;;;;;;4305075;33;20177;-68
2021/04/15 08:33:26;;;;;;;4.10;3.57;;;5.60;99.90;;;;;;4304865;33;20151;-68
2021/04/15 08:36:07;;;;;;;4.90;3.73;;;5.50;99.90;;;;;;4305769;33;20154;-68
2021/04/15 08:39:11;;;;;;;4.20;3.80;;;5.60;99.90;;;;;;4305188;33;20202;-68
2021/04/15 08:42:09;;;;;;;5.33;3.70;;;5.80;99.90;;;;;;4305835;33;20528;-67
2021/04/15 08:44:42;;;;;;;4.87;3.70;;;5.90;99.90;;;;;;4305011;33;20172;-67
2021/04/15 08:47:30;;;;;;;4.03;3.33;;;6.00;99.90;;;;;;4306247;33;20537;-67
2021/04/15 08:50:35;;;;;;;3.67;3.30;;;6.10;99.90;;;;;;4306578;33;20201;-68
2021/04/15 08:53:36;;;;;;;4.50;3.33;;;6.10;99.90;;;;;;4307027;33;20157;-68
2021/04/15 08:56:18;;;;;;;5.30;3.60;;;6.10;99.90;;;;;;4307376;33;20199;-68
2021/04/15 08:59:02;;;;;;;4.37;3.13;;;6.00;99.90;;;;;;4308685;33;20161;-68
2021/04/15 09:01:48;;;;;;;4.93;3.67;;;6.00;99.90;;;;;;4307567;33;20156;-68
2021/04/15 09:04:19;;;;;;;4.27;3.67;;;6.00;99.90;;;;;;4306871;33;20430;-68
2021/04/15 09:07:02;;;;;;;5.03;4.03;;;6.10;99.90;;;;;;4306438;33;20243;-67
2021/04/15 09:09:48;;;;;;;4.23;3.67;;;6.20;99.90;;;;;;4308319;33;20166;-68
2021/04/15 09:12:51;;;;;;;4.80;3.63;;;6.20;99.90;;;;;;4307999;33;20147;-68
2021/04/15 09:15:23;;;;;;;6.53;3.87;;;6.20;99.90;;;;;;4306512;33;20179;-68
2021/04/15 09:18:04;;;;;;;5.27;4.17;;;6.20;99.90;;;;;;4306611;33;20198;-68
2021/04/15 09:20:37;;;;;;;4.97;4.00;;;6.10;99.90;;;;;;4307466;33;20160;-68
2021/04/15 09:23:31;;;;;;;5.10;3.90;;;6.20;99.90;;;;;;4307057;33;20165;-68
2021/04/15 09:26:20;;;;;;;5.27;3.83;;;6.20;99.90;;;;;;4306041;33;20198;-68
2021/04/15 09:29:12;;;;;;;4.20;3.50;;;6.30;99.90;;;;;;4307120;33;20155;-68
2021/04/15 09:31:50;;;;;;;5.70;3.60;;;6.30;99.90;;;;;;4307500;33;20145;-67
2021/04/15 09:34:55;;;;;;;5.53;4.03;;;6.40;99.90;;;;;;4306671;33;20173;-67
2021/04/15 09:37:48;;;;;;;5.10;3.83;;;6.40;99.90;;;;;;4307954;33;20467;-68
2021/04/15 09:40:30;;;;;;;6.07;4.03;;;6.30;99.90;;;;;;4306641;33;20184;-69
2021/04/15 09:43:11;;;;;;;4.60;3.53;;;6.30;99.90;;;;;;4306215;33;20170;-70
2021/04/15 09:45:41;;;;;;;5.67;4.30;;;6.30;99.90;;;;;;4308028;33;20200;-70
2021/04/15 09:48:26;;;;;;;5.73;4.10;;;6.40;99.90;;;;;;4306569;33;20226;-70
2021/04/15 09:50:54;;;;;;;4.40;3.87;;;6.40;99.90;;;;;;4307880;33;20222;-70
2021/04/15 09:53:39;;;;;;;5.80;3.90;;;6.30;99.90;;;;;;4307769;33;20154;-70
2021/04/15 09:56:28;;;;;;;5.63;4.10;;;6.40;99.90;;;;;;4306944;33;20161;-69
2021/04/15 09:59:28;;;;;;;5.87;3.80;;;6.50;99.90;;;;;;4306316;33;20209;-70
2021/04/15 10:02:11;;;;;;;5.33;4.30;;;6.40;99.90;;;;;;4306003;33;20224;-69
2021/04/15 10:04:55;;;;;;;5.83;4.60;;;6.30;99.90;;;;;;4307575;33;20173;-70
2021/04/15 10:07:35;;;;;;;5.73;4.40;;;6.30;99.90;;;;;;4306147;33;20206;-70
2021/04/15 10:10:07;;;;;;;5.50;4.43;;;6.40;99.90;;;;;;4306066;33;20195;-71
2021/04/15 10:12:51;;;;;;;6.93;5.03;;;6.50;99.90;;;;;;4306532;33;20516;-71
2021/04/15 10:15:31;;;;;;;6.67;4.50;;;6.60;99.90;;;;;;4307908;33;20491;-71
2021/04/15 10:18:19;;;;;;;6.27;4.53;;;6.70;99.90;;;;;;4306874;33;20561;-70
2021/04/15 10:21:16;;;;;;;5.23;4.30;;;6.70;99.90;;;;;;4307381;33;20144;-69
2021/04/15 10:24:10;;;;;;;5.07;4.10;;;6.70;99.90;;;;;;4306678;33;20149;-70
2021/04/15 10:27:08;;;;;;;5.17;4.13;;;6.70;99.90;;;;;;4306819;33;20232;-69
2021/04/15 10:29:50;;;;;;;4.97;3.90;;;6.60;99.90;;;;;;4306636;33;20157;-69
2021/04/15 10:32:35;;;;;;;5.03;4.23;;;6.70;99.90;;;;;;4305930;33;20196;-70
2021/04/15 10:35:28;;;;;;;6.97;4.33;;;6.60;99.90;;;;;;4306421;33;20254;-70
2021/04/15 10:38:28;;;;;;;6.30;4.23;;;6.70;99.90;;;;;;4307555;33;20211;-70
2021/04/15 10:41:21;;;;;;;5.47;4.30;;;6.70;99.90;;;;;;4305900;33;20196;-70
2021/04/15 10:43:56;;;;;;;5.40;4.23;;;6.80;99.90;;;;;;4261128;33;20164;-70
2021/04/15 10:46:35;;;;;;;5.60;4.50;;;6.70;99.90;;;;;;4260989;33;20492;-70
2021/04/15 10:49:52;;;;;;;6.43;4.23;;;6.80;99.90;;;;;;4262449;33;20211;-70
2021/04/15 10:52:26;;;;;;;5.97;4.33;;;6.70;99.90;;;;;;4246733;33;20167;-70
2021/04/15 10:55:21;;;;;;;6.17;4.27;;;6.80;99.90;;;;;;4246319;33;20506;-70
2021/04/15 10:57:49;;;;;;;5.70;4.37;;;6.80;99.90;;;;;;4247857;33;20193;-70
2021/04/15 11:00:32;;;;;;;5.37;4.43;;;6.80;99.90;;;;;;4247551;33;20158;-70
2021/04/15 11:03:21;;;;;;;5.20;4.20;;;6.70;99.90;;;;;;4246546;33;20278;-73
2021/04/15 11:05:52;;;;;;;6.10;4.20;;;6.70;99.90;;;;;;4245832;33;20156;-72
2021/04/15 11:08:20;;;;;;;4.90;4.23;;;6.70;99.90;;;;;;4246410;33;20195;-73
2021/04/15 11:10:47;;;;;;;5.80;4.40;;;6.70;99.90;;;;;;4243542;33;20423;-73
2021/04/15 11:13:22;;;;;;;6.17;4.67;;;6.70;99.90;;;;;;4242902;33;20166;-73
2021/04/15 11:15:58;;;;;;;6.33;4.53;;;6.70;99.90;;;;;;4242920;33;20456;-73
2021/04/15 11:18:35;;;;;;;7.50;4.80;;;6.60;99.90;;;;;;4242654;33;20180;-73
2021/04/15 11:21:35;;;;;;;6.60;4.60;;;6.70;99.90;;;;;;4269508;33;20170;-73
2021/04/15 11:24:20;;;;;;;5.97;4.80;;;6.70;99.90;;;;;;4272512;33;20165;-73
2021/04/15 11:26:49;;;;;;;6.60;5.00;;;6.70;99.90;;;;;;4272209;33;20504;-74
2021/04/15 11:29:40;;;;;;;6.43;4.60;;;6.70;99.90;;;;;;4273557;33;20145;-73
2021/04/15 11:32:25;;;;;;;7.43;4.90;;;6.70;99.90;;;;;;4274446;33;20146;-74
2021/04/15 11:35:03;;;;;;;6.20;4.40;;;6.60;99.90;;;;;;4273876;33;20206;-74
2021/04/15 11:37:30;;;;;;;6.00;4.50;;;6.50;99.90;;;;;;4273998;33;20196;-74
2021/04/15 11:40:33;;;;;;;5.70;4.50;;;6.50;99.90;;;;;;4273764;33;20162;-73
2021/04/15 11:43:17;;;;;;;6.17;4.87;;;6.60;99.90;;;;;;4275261;33;20160;-74
2021/04/15 11:45:44;;;;;;;5.63;4.50;;;6.50;99.90;;;;;;4274128;33;20174;-73
2021/04/15 11:48:11;;;;;;;6.00;4.80;;;6.50;99.90;;;;;;4274082;33;20154;-74
2021/04/15 11:50:40;;;;;;;5.67;4.67;;;6.50;99.90;;;;;;4275393;33;20151;-74
2021/04/15 11:53:35;;;;;;;6.43;4.67;;;6.40;99.90;;;;;;4274221;33;20235;-74
2021/04/15 11:56:33;;;;;;;6.20;4.60;;;6.50;99.90;;;;;;4273357;33;20166;-73
2021/04/15 11:59:25;;;;;;;6.43;4.53;;;6.60;99.90;;;;;;4277887;33;20151;-73
2021/04/15 12:01:54;;;;;;;6.03;4.60;;;6.60;99.90;;;;;;4291312;33;20137;-73
2021/04/15 12:04:27;;;;;;;6.40;4.27;;;6.70;99.90;;;;;;4291909;33;20184;-73
2021/04/15 12:07:25;;;;;;;6.07;4.23;;;6.70;99.90;;;;;;4291899;33;20160;-72
2021/04/15 12:09:55;;;;;;;6.70;4.27;;;6.70;99.90;;;;;;4290584;33;20173;-72
2021/04/15 12:12:33;;;;;;;4.93;4.20;;;6.70;99.90;;;;;;4290645;33;20168;-73
2021/04/15 12:15:02;;;;;;;5.30;4.17;;;6.70;99.90;;;;;;4292038;33;20209;-72
2021/04/15 12:17:41;;;;;;;5.97;4.60;;;6.70;99.90;;;;;;4291724;33;20182;-72
2021/04/15 12:20:14;;;;;;;6.63;4.80;;;6.70;99.90;;;;;;4309819;33;20196;-72
2021/04/15 12:22:59;;;;;;;6.10;4.70;;;6.70;99.90;;;;;;4309506;33;20435;-73
2021/04/15 12:25:42;;;;;;;5.60;4.13;;;6.80;99.90;;;;;;4321777;33;20146;-73
2021/04/15 12:28:29;;;;;;;6.53;4.70;;;6.90;99.90;;;;;;4322412;33;20171;-72
2021/04/15 12:31:06;;;;;;;7.23;5.03;;;7.00;99.90;;;;;;4316564;33;20165;-72
2021/04/15 12:33:43;;;;;;;6.93;4.50;;;7.10;99.90;;;;;;4312086;33;20161;-73
2021/04/15 12:36:22;;;;;;;7.03;4.47;;;7.10;99.90;;;;;;4312439;33;20168;-72
2021/04/15 12:38:54;;;;;;;5.63;4.13;;;7.20;99.90;;;;;;4307246;33;20473;-72
2021/04/15 12:41:22;;;;;;;6.73;4.70;;;7.20;99.90;;;;;;4307483;33;20153;-73
2021/04/15 12:43:53;;;;;;;6.53;4.50;;;7.30;99.90;;;;;;4307157;33;20183;-73
2021/04/15 12:46:23;;;;;;;6.50;4.93;;;7.20;99.90;;;;;;4307196;33;20145;-73
2021/04/15 12:49:04;;;;;;;6.67;4.60;;;7.10;99.90;;;;;;4307510;33;20165;-73
2021/04/15 12:51:35;;;;;;;8.33;5.40;;;6.90;99.90;;;;;;4308220;33;20151;-73
2021/04/15 12:54:06;;;;;;;7.73;5.33;;;6.80;99.90;;;;;;4308109;33;20148;-73
2021/04/15 12:56:40;;;;;;;7.13;5.30;;;6.90;99.90;;;;;;4307238;33;20468;-73
2021/04/15 12:59:12;;;;;;;6.67;5.40;;;6.90;99.90;;;;;;4306981;33;20166;-73
2021/04/15 13:01:39;;;;;;;7.57;5.23;;;6.90;99.90;;;;;;4307474;33;20178;-73
2021/04/15 13:04:31;;;;;;;8.53;5.63;;;6.80;99.90;;;;;;4307718;33;20434;-73
2021/04/15 13:07:01;;;;;;;7.50;5.43;;;6.80;99.90;;;;;;4305986;33;20207;-73
2021/04/15 13:09:33;;;;;;;9.97;6.00;;;6.80;99.90;;;;;;4306170;33;20166;-73
2021/04/15 13:12:20;;;;;;;7.43;5.63;;;6.80;99.90;;;;;;4307236;33;20160;-73
2021/04/15 13:14:53;;;;;;;8.20;6.00;;;6.80;99.90;;;;;;4307741;33;20164;-73
2021/04/15 13:17:35;;;;;;;9.67;6.17;;;6.80;99.90;;;;;;4307138;33;20165;-73
2021/04/15 13:20:14;;;;;;;9.10;6.37;;;6.80;99.90;;;;;;4306875;33;20179;-73
2021/04/15 13:22:43;;;;;;;8.47;6.40;;;6.80;99.90;;;;;;4307069;33;20178;-73
2021/04/15 13:25:22;;;;;;;8.23;5.90;;;6.80;99.90;;;;;;4305999;33;20185;-73
2021/04/15 13:27:58;;;;;;;10.77;5.90;;;6.80;99.90;;;;;;4307282;33;20193;-72
2021/04/15 13:30:28;;;;;;;9.53;6.27;;;6.70;99.90;;;;;;4306753;33;20165;-73
2021/04/15 13:33:09;;;;;;;7.30;6.10;;;6.70;99.90;;;;;;4305502;33;20439;-73
2021/04/15 13:35:38;;;;;;;9.27;6.90;;;6.80;99.90;;;;;;4305728;33;20258;-72
2021/04/15 13:41:12;;;;;;;9.97;6.40;;;6.80;99.90;;;;;;4305158;33;20192;-73
2021/04/15 13:43:40;;;;;;;9.17;5.70;;;6.80;99.90;;;;;;4307805;33;20225;-73
2021/04/15 13:46:25;;;;;;;8.30;6.03;;;6.70;99.90;;;;;;4307899;33;20213;-73
2021/04/15 13:49:23;;;;;;;8.80;6.00;;;6.80;99.90;;;;;;4304095;33;20177;-73
2021/04/15 13:51:50;;;;;;;8.03;6.00;;;6.70;99.90;;;;;;4306065;33;20157;-73